createdAt,value
2019-04-14T00:00:36.252Z,33.03
2019-04-14T00:01:43.568Z,33.21
2019-04-14T00:02:49.049Z,31.67
2019-04-14T00:04:09.442Z,32.31
2019-04-14T00:05:14.699Z,31.88
2019-04-14T00:06:18.020Z,31.71
2019-04-14T00:07:20.962Z,31.92
2019-04-14T00:08:24.103Z,34.72
2019-04-14T00:09:27.319Z,31.27
2019-04-14T00:10:31.169Z,31.81
2019-04-14T00:11:36.586Z,31.20
2019-04-14T00:12:39.120Z,31.40
2019-04-14T00:13:41.863Z,32.17
2019-04-14T00:14:44.714Z,31.74
2019-04-14T00:15:50.319Z,31.92
2019-04-14T00:16:51.659Z,35.15
2019-04-14T00:17:54.596Z,32.40
2019-04-14T00:18:57.669Z,31.59
2019-04-14T00:20:00.988Z,31.20
2019-04-14T00:21:04.434Z,31.99
2019-04-14T00:22:07.289Z,31.04
2019-04-14T00:23:10.888Z,32.63
2019-04-14T00:24:14.111Z,30.87
2019-04-14T00:25:17.422Z,31.40
2019-04-14T00:26:29.340Z,31.90
2019-04-14T00:27:32.470Z,31.90
2019-04-14T00:28:35.749Z,32.53
2019-04-14T00:29:39.251Z,31.99
2019-04-14T00:30:42.610Z,31.68
2019-04-14T00:31:45.537Z,31.73
2019-04-14T00:32:55.613Z,31.41
2019-04-14T00:34:00.701Z,30.48
2019-04-14T00:35:12.529Z,31.17
2019-04-14T00:36:17.589Z,33.33
2019-04-14T00:37:31.492Z,33.69
2019-04-14T00:38:36.898Z,31.52
2019-04-14T00:39:48.968Z,30.88
2019-04-14T00:41:05.460Z,32.35
2019-04-14T00:42:08.286Z,31.69
2019-04-14T00:43:13.482Z,32.81
2019-04-14T00:44:34.610Z,34.00
2019-04-14T00:45:45.295Z,32.26
2019-04-14T00:46:46.005Z,32.96
2019-04-14T00:48:03.203Z,31.50
2019-04-14T00:49:01.333Z,34.39
2019-04-14T00:50:05.739Z,31.53
2019-04-14T00:51:09.121Z,31.23
2019-04-14T00:52:12.509Z,31.71
2019-04-14T00:53:14.855Z,31.82
2019-04-14T00:54:17.530Z,30.79
2019-04-14T00:55:20.462Z,31.60
2019-04-14T00:56:23.673Z,31.57
2019-04-14T00:57:26.939Z,31.06
2019-04-14T00:58:29.994Z,32.11
2019-04-14T00:59:33.377Z,30.24
2019-04-14T01:00:36.483Z,31.01
2019-04-14T01:01:39.457Z,30.74
2019-04-14T01:02:42.927Z,30.19
2019-04-14T01:03:45.910Z,30.09
2019-04-14T01:04:49.096Z,30.63
2019-04-14T01:05:53.088Z,30.46
2019-04-14T01:06:55.499Z,31.47
2019-04-14T01:07:58.779Z,29.65
2019-04-14T01:09:02.142Z,31.18
2019-04-14T01:10:06.065Z,30.86
2019-04-14T01:11:09.588Z,30.48
2019-04-14T01:12:12.811Z,31.43
2019-04-14T01:13:15.746Z,31.08
2019-04-14T01:14:19.058Z,32.81
2019-04-14T01:15:22.241Z,33.23
2019-04-14T01:16:25.549Z,31.12
2019-04-14T01:17:28.756Z,31.81
2019-04-14T01:18:31.939Z,30.84
2019-04-14T01:19:35.247Z,30.90
2019-04-14T01:20:39.081Z,31.06
2019-04-14T01:21:41.553Z,31.76
2019-04-14T01:22:44.565Z,32.57
2019-04-14T01:23:47.944Z,32.93
2019-04-14T01:24:51.201Z,32.07
2019-04-14T01:25:54.475Z,32.16
2019-04-14T01:26:57.445Z,30.95
2019-04-14T01:28:00.302Z,31.24
2019-04-14T01:29:03.624Z,30.16
2019-04-14T01:30:06.692Z,30.20
2019-04-14T01:31:09.856Z,31.37
2019-04-14T01:32:13.304Z,31.05
2019-04-14T01:33:16.280Z,31.46
2019-04-14T01:34:19.511Z,32.08
2019-04-14T01:35:22.717Z,30.77
2019-04-14T01:36:25.609Z,30.89
2019-04-14T01:37:27.379Z,33.79
2019-04-14T01:38:29.726Z,32.45
2019-04-14T01:39:32.879Z,31.33
2019-04-14T01:40:38.056Z,31.30
2019-04-14T01:41:41.084Z,31.74
2019-04-14T01:42:44.219Z,31.46
2019-04-14T01:43:47.425Z,35.38
2019-04-14T01:44:50.338Z,30.92
2019-04-14T01:46:02.416Z,31.46
2019-04-14T01:46:56.756Z,32.47
2019-04-14T01:47:59.568Z,33.62
2019-04-14T01:49:02.888Z,32.98
2019-04-14T01:50:05.926Z,30.57
2019-04-14T01:51:27.116Z,30.40
2019-04-14T01:52:47.968Z,30.40
2019-04-14T01:53:55.278Z,30.02
2019-04-14T01:55:02.885Z,30.41
2019-04-14T01:56:08.004Z,30.18
2019-04-14T01:57:24.305Z,32.18
2019-04-14T01:58:29.304Z,31.31
2019-04-14T01:59:32.649Z,31.18
2019-04-14T02:00:49.465Z,30.81
2019-04-14T02:01:54.292Z,30.44
2019-04-14T02:02:57.402Z,32.34
2019-04-14T02:04:00.656Z,29.82
2019-04-14T02:05:03.931Z,30.33
2019-04-14T02:06:07.131Z,30.13
2019-04-14T02:07:10.258Z,30.09
2019-04-14T02:08:13.461Z,32.54
2019-04-14T02:09:16.665Z,30.30
2019-04-14T02:10:19.448Z,30.81
2019-04-14T02:11:22.595Z,31.79
2019-04-14T02:12:27.791Z,31.18
2019-04-14T02:13:31.106Z,30.44
2019-04-14T02:14:34.414Z,29.96
2019-04-14T02:15:37.440Z,30.41
2019-04-14T02:16:45.278Z,30.70
2019-04-14T02:17:45.913Z,31.58
2019-04-14T02:18:51.536Z,30.83
2019-04-14T02:19:52.741Z,31.60
2019-04-14T02:20:55.726Z,32.70
2019-04-14T02:21:58.556Z,31.79
2019-04-14T02:23:01.838Z,30.38
2019-04-14T02:24:04.944Z,30.61
2019-04-14T02:25:07.726Z,29.72
2019-04-14T02:26:11.242Z,30.72
2019-04-14T02:27:14.252Z,30.87
2019-04-14T02:28:17.731Z,30.97
2019-04-14T02:29:21.143Z,34.29
2019-04-14T02:30:28.555Z,34.30
2019-04-14T02:31:54.956Z,29.96
2019-04-14T02:32:57.492Z,29.85
2019-04-14T02:34:00.831Z,31.77
2019-04-14T02:37:21.253Z,30.40
2019-04-14T02:39:39.000Z,31.27
2019-04-14T02:40:37.022Z,30.58
2019-04-14T02:42:42.385Z,31.65
2019-04-14T02:45:57.839Z,31.29
2019-04-14T02:47:01.450Z,30.83
2019-04-14T02:48:22.845Z,31.16
2019-04-14T02:49:04.679Z,30.69
2019-04-14T02:50:12.187Z,30.91
2019-04-14T02:53:23.709Z,29.76
2019-04-14T02:55:29.909Z,30.40
2019-04-14T02:56:36.626Z,31.74
2019-04-14T02:57:43.409Z,30.17
2019-04-14T02:58:54.630Z,34.77
2019-04-14T02:59:52.840Z,30.17
2019-04-14T03:01:00.156Z,33.18
2019-04-14T03:02:19.642Z,31.41
2019-04-14T03:03:16.467Z,30.22
2019-04-14T03:04:07.242Z,31.15
2019-04-14T03:05:12.011Z,30.22
2019-04-14T03:07:34.064Z,30.04
2019-04-14T03:08:36.375Z,29.82
2019-04-14T03:09:38.941Z,30.52
2019-04-14T03:10:42.142Z,30.27
2019-04-14T03:11:44.041Z,32.33
2019-04-14T03:12:46.523Z,31.61
2019-04-14T03:13:58.459Z,31.03
2019-04-14T03:14:55.652Z,29.40
2019-04-14T03:16:02.389Z,30.02
2019-04-14T03:17:21.095Z,30.46
2019-04-14T03:19:50.205Z,29.74
2019-04-14T03:20:55.040Z,30.52
2019-04-14T03:22:13.139Z,29.84
2019-04-14T03:23:24.936Z,30.26
2019-04-14T03:24:34.049Z,30.02
2019-04-14T03:25:22.730Z,29.44
2019-04-14T03:26:33.950Z,28.55
2019-04-14T03:28:51.631Z,28.57
2019-04-14T03:30:38.950Z,31.09
2019-04-14T03:33:48.977Z,31.50
2019-04-14T03:37:59.465Z,30.00
2019-04-14T03:39:02.516Z,30.37
2019-04-14T03:39:51.307Z,30.12
2019-04-14T03:40:58.895Z,29.91
2019-04-14T03:42:01.512Z,29.22
2019-04-14T03:43:09.986Z,30.19
2019-04-14T03:44:09.816Z,33.74
2019-04-14T03:45:14.390Z,30.62
2019-04-14T03:46:37.040Z,30.32
2019-04-14T03:47:25.090Z,29.97
2019-04-14T03:49:37.432Z,29.23
2019-04-14T03:50:37.560Z,31.08
2019-04-14T03:51:45.133Z,29.18
2019-04-14T03:52:49.835Z,30.66
2019-04-14T03:53:58.710Z,29.16
2019-04-14T03:54:44.419Z,32.70
2019-04-14T03:55:53.807Z,32.70
2019-04-14T03:56:53.869Z,33.05
2019-04-14T03:57:56.346Z,29.97
2019-04-14T03:58:59.820Z,33.19
2019-04-14T04:00:05.321Z,29.75
2019-04-14T04:01:08.274Z,31.04
2019-04-14T04:02:11.807Z,30.57
2019-04-14T04:03:15.223Z,29.53
2019-04-14T04:04:18.376Z,29.21
2019-04-14T04:05:21.584Z,29.37
2019-04-14T04:06:24.662Z,30.29
2019-04-14T04:07:27.907Z,29.13
2019-04-14T04:08:31.286Z,31.42
2019-04-14T04:09:49.699Z,34.40
2019-04-14T04:10:57.583Z,31.23
2019-04-14T04:12:00.578Z,30.36
2019-04-14T04:13:04.083Z,29.67
2019-04-14T04:14:07.455Z,28.90
2019-04-14T04:15:10.675Z,30.08
2019-04-14T04:16:18.069Z,29.59
2019-04-14T04:17:34.249Z,29.68
2019-04-14T04:18:48.583Z,29.56
2019-04-14T04:19:59.908Z,30.13
2019-04-14T04:21:20.579Z,30.02
2019-04-14T04:22:41.675Z,29.31
2019-04-14T04:23:53.606Z,29.12
2019-04-14T04:25:00.784Z,28.81
2019-04-14T04:26:22.002Z,31.92
2019-04-14T04:27:25.175Z,29.11
2019-04-14T04:28:47.196Z,29.53
2019-04-14T04:30:06.100Z,31.43
2019-04-14T04:31:14.064Z,29.17
2019-04-14T04:32:18.661Z,28.91
2019-04-14T04:33:31.327Z,28.86
2019-04-14T04:34:47.395Z,29.45
2019-04-14T04:36:07.387Z,29.60
2019-04-14T04:37:12.823Z,29.86
2019-04-14T04:38:26.978Z,29.11
2019-04-14T04:39:46.090Z,28.70
2019-04-14T04:40:48.647Z,30.81
2019-04-14T04:41:51.597Z,29.72
2019-04-14T04:42:54.706Z,29.93
2019-04-14T04:43:58.176Z,29.99
2019-04-14T04:45:01.750Z,29.62
2019-04-14T04:46:04.875Z,29.27
2019-04-14T04:47:07.770Z,29.58
2019-04-14T04:48:11.170Z,29.53
2019-04-14T04:49:18.323Z,29.54
2019-04-14T04:50:17.794Z,28.49
2019-04-14T04:51:20.374Z,29.18
2019-04-14T04:52:23.641Z,29.97
2019-04-14T04:53:26.686Z,29.20
2019-04-14T04:54:30.084Z,29.41
2019-04-14T04:55:32.875Z,29.81
2019-04-14T04:56:36.195Z,32.66
2019-04-14T04:57:39.525Z,29.44
2019-04-14T04:58:43.479Z,29.89
2019-04-14T04:59:47.418Z,30.03
2019-04-14T05:00:52.506Z,30.12
2019-04-14T05:01:53.931Z,29.81
2019-04-14T05:02:57.146Z,32.61
2019-04-14T05:04:00.292Z,29.78
2019-04-14T05:05:25.277Z,30.03
2019-04-14T05:06:57.226Z,29.07
2019-04-14T05:08:00.039Z,28.79
2019-04-14T05:09:06.141Z,27.75
2019-04-14T05:10:17.375Z,30.02
2019-04-14T05:11:22.979Z,28.47
2019-04-14T05:12:32.748Z,29.84
2019-04-14T05:13:36.391Z,29.30
2019-04-14T05:14:41.400Z,28.76
2019-04-14T05:15:46.509Z,29.12
2019-04-14T05:16:48.878Z,29.01
2019-04-14T05:17:51.789Z,30.34
2019-04-14T05:18:55.129Z,29.13
2019-04-14T05:19:58.504Z,29.47
2019-04-14T05:21:01.670Z,29.95
2019-04-14T05:22:04.823Z,29.54
2019-04-14T05:23:08.100Z,29.19
2019-04-14T05:24:09.823Z,29.62
2019-04-14T05:25:12.518Z,29.10
2019-04-14T05:26:15.579Z,29.49
2019-04-14T05:27:18.917Z,29.49
2019-04-14T05:28:22.143Z,29.12
2019-04-14T05:29:25.390Z,30.45
2019-04-14T05:30:28.576Z,28.75
2019-04-14T05:31:30.878Z,32.07
2019-04-14T05:32:34.794Z,29.11
2019-04-14T05:33:38.212Z,29.78
2019-04-14T05:34:41.217Z,29.34
2019-04-14T05:35:44.505Z,33.39
2019-04-14T05:36:48.328Z,29.94
2019-04-14T05:37:50.801Z,29.25
2019-04-14T05:38:54.103Z,30.25
2019-04-14T05:39:56.979Z,29.10
2019-04-14T05:41:00.546Z,32.77
2019-04-14T05:42:08.637Z,30.67
2019-04-14T05:43:08.875Z,28.17
2019-04-14T05:44:12.106Z,28.35
2019-04-14T05:45:15.498Z,29.44
2019-04-14T05:46:18.553Z,31.17
2019-04-14T05:47:21.813Z,30.57
2019-04-14T05:48:25.092Z,30.37
2019-04-14T05:49:35.301Z,29.89
2019-04-14T05:50:33.524Z,31.42
2019-04-14T05:51:37.275Z,31.45
2019-04-14T05:52:40.474Z,33.78
2019-04-14T05:53:43.814Z,31.65
2019-04-14T05:54:45.764Z,28.80
2019-04-14T05:55:48.232Z,29.31
2019-04-14T05:56:51.624Z,28.87
2019-04-14T05:57:54.538Z,28.82
2019-04-14T05:58:57.989Z,29.67
2019-04-14T06:00:01.753Z,28.82
2019-04-14T06:01:04.754Z,31.37
2019-04-14T06:02:07.294Z,35.07
2019-04-14T06:03:10.300Z,32.51
2019-04-14T06:04:13.599Z,30.56
2019-04-14T06:05:18.868Z,29.29
2019-04-14T06:06:21.433Z,29.11
2019-04-14T06:07:24.181Z,29.36
2019-04-14T06:08:26.739Z,28.71
2019-04-14T06:09:28.841Z,28.40
2019-04-14T06:10:33.363Z,28.31
2019-04-14T06:11:35.554Z,28.88
2019-04-14T06:12:37.931Z,29.32
2019-04-14T06:13:40.165Z,28.37
2019-04-14T06:14:42.563Z,29.11
2019-04-14T06:15:45.194Z,27.77
2019-04-14T06:16:47.945Z,28.50
2019-04-14T06:17:50.405Z,29.31
2019-04-14T06:18:52.873Z,29.78
2019-04-14T06:19:55.383Z,30.69
2019-04-14T06:20:57.545Z,28.78
2019-04-14T06:22:00.639Z,29.65
2019-04-14T06:23:03.445Z,28.66
2019-04-14T06:24:05.995Z,29.25
2019-04-14T06:25:08.508Z,29.97
2019-04-14T06:26:11.041Z,31.13
2019-04-14T06:27:13.676Z,28.11
2019-04-14T06:28:15.748Z,27.71
2019-04-14T06:29:17.924Z,28.55
2019-04-14T06:30:37.524Z,27.50
2019-04-14T06:31:45.909Z,28.26
2019-04-14T06:32:49.665Z,30.97
2019-04-14T06:34:03.186Z,27.59
2019-04-14T06:35:08.902Z,28.07
2019-04-14T06:36:30.004Z,28.24
2019-04-14T06:37:46.329Z,27.62
2019-04-14T06:38:50.448Z,29.76
2019-04-14T06:39:54.810Z,28.54
2019-04-14T06:40:59.244Z,28.18
2019-04-14T06:42:01.605Z,29.01
2019-04-14T06:43:03.559Z,28.95
2019-04-14T06:44:05.804Z,28.96
2019-04-14T06:45:08.488Z,29.92
2019-04-14T06:46:10.579Z,29.17
2019-04-14T06:47:13.188Z,29.24
2019-04-14T06:48:15.775Z,29.32
2019-04-14T06:49:18.050Z,29.72
2019-04-14T06:50:20.375Z,30.53
2019-04-14T06:51:22.406Z,29.02
2019-04-14T06:52:24.975Z,28.48
2019-04-14T06:53:27.153Z,28.15
2019-04-14T06:54:29.402Z,30.96
2019-04-14T06:55:31.743Z,29.03
2019-04-14T06:56:34.157Z,29.11
2019-04-14T06:57:36.427Z,31.50
2019-04-14T06:58:38.624Z,33.29
2019-04-14T06:59:41.038Z,31.20
2019-04-14T07:00:43.576Z,29.29
2019-04-14T07:01:47.146Z,28.39
2019-04-14T07:02:49.410Z,29.63
2019-04-14T07:03:51.615Z,29.17
2019-04-14T07:04:54.613Z,27.33
2019-04-14T07:05:56.750Z,27.24
2019-04-14T07:06:58.522Z,28.93
2019-04-14T07:08:00.963Z,29.26
2019-04-14T07:09:05.466Z,29.00
2019-04-14T07:10:07.878Z,28.97
2019-04-14T07:11:10.409Z,29.08
2019-04-14T07:12:13.118Z,28.80
2019-04-14T07:13:15.336Z,29.81
2019-04-14T07:14:17.593Z,29.89
2019-04-14T07:15:19.749Z,30.63
2019-04-14T07:16:22.543Z,28.69
2019-04-14T07:17:25.254Z,27.85
2019-04-14T07:18:28.301Z,30.59
2019-04-14T07:19:30.574Z,28.03
2019-04-14T07:20:33.209Z,32.98
2019-04-14T07:21:35.077Z,29.00
2019-04-14T07:22:37.637Z,28.22
2019-04-14T07:23:40.154Z,28.79
2019-04-14T07:24:43.248Z,27.21
2019-04-14T07:25:45.511Z,29.92
2019-04-14T07:26:48.064Z,33.13
2019-04-14T07:27:50.817Z,31.15
2019-04-14T07:28:56.840Z,30.20
2019-04-14T07:29:59.293Z,28.24
2019-04-14T07:31:03.181Z,28.04
2019-04-14T07:32:19.047Z,27.85
2019-04-14T07:33:21.234Z,29.19
2019-04-14T07:34:37.438Z,26.87
2019-04-14T07:35:58.605Z,27.47
2019-04-14T07:37:09.539Z,28.98
2019-04-14T07:38:19.750Z,30.44
2019-04-14T07:39:33.208Z,29.86
2019-04-14T07:40:52.326Z,27.52
2019-04-14T07:42:05.536Z,26.72
2019-04-14T07:43:10.700Z,27.11
2019-04-14T07:44:15.045Z,31.09
2019-04-14T07:45:26.416Z,29.75
2019-04-14T07:46:34.205Z,27.89
2019-04-14T07:47:36.501Z,27.55
2019-04-14T07:48:43.802Z,27.40
2019-04-14T07:49:45.894Z,27.65
2019-04-14T07:51:05.532Z,27.53
2019-04-14T07:52:13.660Z,26.28
2019-04-14T07:53:34.865Z,29.04
2019-04-14T07:54:47.740Z,27.37
2019-04-14T07:55:52.106Z,28.59
2019-04-14T07:56:59.329Z,27.41
2019-04-14T07:58:03.791Z,27.68
2019-04-14T07:59:20.197Z,26.59
2019-04-14T08:00:39.756Z,28.45
2019-04-14T08:02:02.260Z,29.16
2019-04-14T08:03:07.595Z,29.24
2019-04-14T08:04:11.245Z,28.34
2019-04-14T08:05:18.427Z,27.96
2019-04-14T08:06:21.055Z,27.19
2019-04-14T08:07:23.763Z,29.10
2019-04-14T08:08:25.954Z,27.06
2019-04-14T08:09:28.891Z,27.72
2019-04-14T08:10:31.771Z,28.77
2019-04-14T08:11:34.459Z,28.42
2019-04-14T08:12:36.481Z,30.14
2019-04-14T08:13:39.317Z,28.74
2019-04-14T08:14:41.817Z,31.42
2019-04-14T08:15:44.343Z,31.12
2019-04-14T08:16:48.339Z,29.81
2019-04-14T08:17:50.629Z,31.42
2019-04-14T08:18:53.065Z,28.34
2019-04-14T08:19:55.564Z,36.19
2019-04-14T08:20:57.623Z,38.92
2019-04-14T08:21:59.823Z,32.69
2019-04-14T08:23:02.163Z,40.38
2019-04-14T08:24:04.846Z,36.93
2019-04-14T08:25:07.288Z,36.87
2019-04-14T08:26:09.660Z,36.52
2019-04-14T08:27:12.088Z,41.42
2019-04-14T08:28:14.374Z,41.46
2019-04-14T08:29:16.569Z,31.62
2019-04-14T08:30:18.748Z,35.13
2019-04-14T08:31:20.901Z,39.37
2019-04-14T08:32:23.076Z,38.58
2019-04-14T08:33:25.274Z,39.42
2019-04-14T08:34:27.717Z,38.63
2019-04-14T08:35:29.843Z,34.01
2019-04-14T08:36:33.357Z,30.82
2019-04-14T08:37:35.557Z,31.14
2019-04-14T08:38:38.096Z,34.91
2019-04-14T08:39:41.088Z,29.66
2019-04-14T08:40:43.678Z,35.79
2019-04-14T08:41:53.338Z,30.12
2019-04-14T08:42:57.851Z,34.19
2019-04-14T08:44:01.856Z,31.37
2019-04-14T08:45:08.214Z,31.69
2019-04-14T08:46:19.757Z,35.58
2019-04-14T08:47:21.796Z,43.37
2019-04-14T08:48:23.634Z,43.61
2019-04-14T08:49:34.815Z,42.44
2019-04-14T08:50:45.143Z,41.20
2019-04-14T08:51:55.488Z,34.34
2019-04-14T08:52:59.985Z,31.48
2019-04-14T08:54:07.387Z,32.77
2019-04-14T08:55:26.312Z,31.40
2019-04-14T08:56:30.698Z,34.05
2019-04-14T08:57:39.003Z,41.82
2019-04-14T08:58:59.546Z,43.15
2019-04-14T09:00:21.274Z,41.49
2019-04-14T09:01:25.661Z,31.51
2019-04-14T09:02:46.437Z,31.28
2019-04-14T09:03:53.703Z,32.22
2019-04-14T09:05:03.733Z,34.99
2019-04-14T09:06:08.097Z,34.79
2019-04-14T09:07:16.219Z,31.88
2019-04-14T09:08:23.413Z,37.45
2019-04-14T09:09:30.603Z,32.63
2019-04-14T09:10:34.513Z,42.89
2019-04-14T09:11:41.723Z,45.31
2019-04-14T09:12:45.288Z,39.84
2019-04-14T09:13:47.681Z,38.35
2019-04-14T09:14:56.798Z,34.70
2019-04-14T09:15:54.110Z,35.46
2019-04-14T09:16:56.754Z,43.08
2019-04-14T09:17:59.324Z,44.62
2019-04-14T09:19:07.670Z,34.67
2019-04-14T09:20:05.848Z,42.18
2019-04-14T09:21:08.478Z,32.84
2019-04-14T09:22:10.486Z,42.47
2019-04-14T09:23:13.022Z,33.74
2019-04-14T09:24:15.278Z,34.44
2019-04-14T09:25:17.534Z,31.96
2019-04-14T09:26:20.182Z,44.06
2019-04-14T09:27:22.392Z,36.95
2019-04-14T09:28:25.120Z,38.26
2019-04-14T09:29:27.650Z,42.17
2019-04-14T09:30:29.777Z,43.78
2019-04-14T09:31:32.434Z,40.00
2019-04-14T09:32:35.353Z,38.97
2019-04-14T09:33:37.285Z,41.55
2019-04-14T09:34:39.888Z,36.88
2019-04-14T09:35:42.362Z,38.23
2019-04-14T09:36:44.044Z,41.20
2019-04-14T09:37:46.196Z,39.37
2019-04-14T09:38:48.636Z,41.19
2019-04-14T09:39:50.331Z,40.06
2019-04-14T09:40:52.465Z,35.45
2019-04-14T09:41:54.912Z,41.08
2019-04-14T09:42:57.811Z,43.37
2019-04-14T09:44:02.005Z,36.52
2019-04-14T09:45:05.810Z,36.53
2019-04-14T09:46:08.151Z,37.34
2019-04-14T09:47:10.826Z,35.09
2019-04-14T09:48:13.878Z,34.17
2019-04-14T09:49:15.647Z,40.64
2019-04-14T09:50:19.496Z,36.71
2019-04-14T09:51:21.859Z,40.43
2019-04-14T09:52:23.884Z,40.99
2019-04-14T09:53:26.619Z,41.25
2019-04-14T09:54:28.827Z,41.21
2019-04-14T09:55:31.523Z,36.75
2019-04-14T09:56:34.313Z,36.82
2019-04-14T09:57:36.054Z,35.38
2019-04-14T09:58:38.306Z,40.60
2019-04-14T09:59:40.804Z,38.15
2019-04-14T10:00:44.340Z,31.46
2019-04-14T10:01:46.906Z,30.09
2019-04-14T10:02:49.243Z,28.58
2019-04-14T10:03:53.249Z,33.99
2019-04-14T10:04:56.673Z,31.53
2019-04-14T10:05:59.153Z,34.16
2019-04-14T10:07:01.963Z,31.23
2019-04-14T10:08:04.603Z,30.92
2019-04-14T10:09:07.600Z,32.26
2019-04-14T10:10:10.154Z,30.58
2019-04-14T10:11:13.337Z,34.88
2019-04-14T10:12:15.528Z,36.01
2019-04-14T10:13:18.054Z,34.35
2019-04-14T10:14:20.503Z,29.21
2019-04-14T10:15:22.946Z,29.53
2019-04-14T10:16:25.962Z,33.73
2019-04-14T10:17:28.148Z,34.89
2019-04-14T10:18:30.219Z,37.07
2019-04-14T10:19:34.684Z,37.65
2019-04-14T10:20:37.081Z,37.46
2019-04-14T10:21:39.798Z,32.09
2019-04-14T10:22:43.831Z,38.56
2019-04-14T10:23:46.562Z,35.99
2019-04-14T10:24:48.604Z,35.02
2019-04-14T10:25:50.998Z,36.19
2019-04-14T10:26:53.658Z,34.96
2019-04-14T10:27:55.724Z,28.10
2019-04-14T10:28:58.158Z,28.48
2019-04-14T10:30:00.793Z,28.15
2019-04-14T10:31:03.021Z,33.46
2019-04-14T10:32:06.297Z,33.48
2019-04-14T10:33:08.956Z,35.36
2019-04-14T10:34:10.647Z,31.02
2019-04-14T10:35:14.921Z,31.85
2019-04-14T10:36:17.491Z,35.10
2019-04-14T10:37:20.261Z,34.15
2019-04-14T10:38:22.787Z,28.24
2019-04-14T10:39:25.372Z,30.93
2019-04-14T10:40:27.562Z,30.07
2019-04-14T10:41:29.611Z,31.64
2019-04-14T10:42:31.457Z,31.76
2019-04-14T10:43:34.198Z,29.10
2019-04-14T10:44:36.821Z,30.83
2019-04-14T10:45:38.913Z,33.79
2019-04-14T10:46:41.004Z,30.73
2019-04-14T10:47:43.770Z,30.78
2019-04-14T10:48:45.793Z,31.27
2019-04-14T10:49:48.015Z,31.78
2019-04-14T10:50:50.427Z,33.80
2019-04-14T10:51:52.409Z,33.86
2019-04-14T10:52:54.874Z,33.45
2019-04-14T10:53:57.069Z,33.95
2019-04-14T10:54:59.321Z,33.32
2019-04-14T10:56:02.098Z,29.17
2019-04-14T10:57:04.577Z,29.25
2019-04-14T10:58:07.179Z,33.29
2019-04-14T10:59:09.702Z,28.60
2019-04-14T11:00:16.141Z,27.48
2019-04-14T11:01:18.486Z,30.62
2019-04-14T11:02:20.957Z,24.66
2019-04-14T11:03:23.835Z,25.09
2019-04-14T11:04:26.877Z,24.65
2019-04-14T11:05:32.859Z,28.63
2019-04-14T11:06:54.306Z,26.70
2019-04-14T11:07:57.631Z,24.99
2019-04-14T11:08:59.862Z,27.72
2019-04-14T11:10:05.276Z,28.84
2019-04-14T11:11:08.193Z,28.02
2019-04-14T11:12:10.046Z,30.02
2019-04-14T11:13:12.141Z,31.29
2019-04-14T11:14:14.557Z,31.13
2019-04-14T11:15:17.382Z,31.73
2019-04-14T11:16:19.362Z,30.47
2019-04-14T11:17:21.887Z,31.59
2019-04-14T11:18:24.113Z,30.72
2019-04-14T11:19:26.821Z,31.84
2019-04-14T11:20:30.094Z,29.77
2019-04-14T11:21:41.846Z,30.42
2019-04-14T11:22:36.350Z,28.68
2019-04-14T11:23:39.293Z,31.14
2019-04-14T11:24:42.120Z,31.26
2019-04-14T11:25:44.990Z,31.15
2019-04-14T11:26:47.340Z,26.17
2019-04-14T11:27:49.426Z,30.27
2019-04-14T11:28:52.223Z,31.14
2019-04-14T11:29:54.651Z,31.40
2019-04-14T11:30:57.352Z,30.92
2019-04-14T11:32:19.865Z,31.47
2019-04-14T11:33:24.287Z,31.09
2019-04-14T11:34:34.665Z,29.34
2019-04-14T11:35:47.442Z,27.35
2019-04-14T11:36:57.681Z,28.01
2019-04-14T11:38:05.615Z,31.14
2019-04-14T11:39:10.035Z,30.84
2019-04-14T11:40:14.149Z,31.22
2019-04-14T11:41:18.351Z,31.47
2019-04-14T11:42:20.451Z,29.76
2019-04-14T11:43:23.282Z,31.24
2019-04-14T11:44:25.698Z,30.37
2019-04-14T11:45:28.831Z,28.81
2019-04-14T11:46:31.259Z,30.24
2019-04-14T11:47:33.316Z,29.00
2019-04-14T11:48:35.373Z,27.97
2019-04-14T11:49:37.633Z,26.60
2019-04-14T11:50:40.846Z,26.33
2019-04-14T11:51:54.621Z,28.60
2019-04-14T11:52:48.616Z,25.14
2019-04-14T11:53:51.222Z,25.31
2019-04-14T11:54:54.090Z,27.04
2019-04-14T11:55:56.557Z,24.66
2019-04-14T11:56:58.935Z,25.13
2019-04-14T11:58:01.142Z,28.53
2019-04-14T11:59:03.937Z,28.65
2019-04-14T12:00:12.354Z,24.60
2019-04-14T12:01:33.434Z,23.55
2019-04-14T12:02:40.564Z,25.61
2019-04-14T12:03:53.627Z,23.81
2019-04-14T12:04:58.054Z,22.42
2019-04-14T12:06:18.775Z,24.28
2019-04-14T12:07:23.305Z,26.88
2019-04-14T12:08:31.062Z,27.05
2019-04-14T12:09:37.845Z,29.70
2019-04-14T12:10:40.300Z,28.18
2019-04-14T12:11:43.496Z,26.60
2019-04-14T12:12:45.184Z,29.26
2019-04-14T12:13:49.571Z,27.92
2019-04-14T12:14:51.974Z,29.11
2019-04-14T12:15:54.311Z,23.17
2019-04-14T12:16:56.933Z,27.50
2019-04-14T12:17:59.565Z,27.07
2019-04-14T12:19:01.850Z,28.53
2019-04-14T12:20:06.802Z,25.93
2019-04-14T12:21:08.978Z,23.13
2019-04-14T12:22:11.331Z,24.94
2019-04-14T12:23:16.052Z,22.89
2019-04-14T12:24:18.609Z,26.41
2019-04-14T12:25:20.747Z,25.08
2019-04-14T12:26:22.917Z,27.23
2019-04-14T12:27:25.093Z,22.85
2019-04-14T12:28:28.417Z,25.23
2019-04-14T12:29:30.699Z,25.36
2019-04-14T12:30:33.308Z,28.67
2019-04-14T12:31:35.895Z,29.06
2019-04-14T12:32:38.955Z,29.27
2019-04-14T12:33:40.848Z,27.99
2019-04-14T12:34:43.487Z,25.88
2019-04-14T12:35:46.151Z,24.39
2019-04-14T12:36:48.343Z,24.09
2019-04-14T12:37:52.207Z,27.67
2019-04-14T12:38:54.866Z,23.03
2019-04-14T12:39:57.218Z,26.51
2019-04-14T12:41:00.984Z,27.01
2019-04-14T12:42:06.474Z,28.25
2019-04-14T12:43:13.322Z,28.98
2019-04-14T12:44:32.613Z,28.15
2019-04-14T12:45:43.381Z,28.28
2019-04-14T12:46:53.107Z,27.06
2019-04-14T12:48:00.374Z,28.76
2019-04-14T12:49:12.950Z,28.85
2019-04-14T12:50:18.443Z,28.33
2019-04-14T12:51:26.572Z,25.56
2019-04-14T12:52:29.316Z,25.73
2019-04-14T12:53:31.618Z,25.00
2019-04-14T12:54:34.098Z,28.64
2019-04-14T12:55:36.280Z,28.47
2019-04-14T12:56:38.872Z,28.62
2019-04-14T12:57:46.226Z,28.69
2019-04-14T12:58:59.537Z,29.24
2019-04-14T13:00:05.003Z,28.75
2019-04-14T13:01:10.140Z,28.29
2019-04-14T13:02:14.475Z,28.96
2019-04-14T13:03:17.205Z,26.78
2019-04-14T13:04:18.927Z,28.46
2019-04-14T13:05:21.274Z,26.48
2019-04-14T13:06:23.885Z,28.10
2019-04-14T13:07:26.401Z,26.73
2019-04-14T13:08:28.893Z,28.48
2019-04-14T13:09:31.200Z,26.54
2019-04-14T13:10:34.406Z,28.72
2019-04-14T13:11:36.679Z,28.81
2019-04-14T13:12:39.307Z,28.55
2019-04-14T13:13:41.864Z,27.99
2019-04-14T13:14:44.441Z,27.76
2019-04-14T13:15:46.677Z,25.96
2019-04-14T13:16:49.217Z,26.86
2019-04-14T13:17:51.817Z,23.04
2019-04-14T13:18:54.181Z,25.87
2019-04-14T13:19:56.382Z,28.16
2019-04-14T13:20:58.745Z,27.80
2019-04-14T13:22:01.278Z,27.05
2019-04-14T13:23:04.305Z,26.31
2019-04-14T13:24:06.637Z,27.99
2019-04-14T13:25:08.864Z,27.25
2019-04-14T13:26:11.239Z,26.63
2019-04-14T13:27:13.641Z,21.77
2019-04-14T13:28:16.088Z,26.66
2019-04-14T13:29:19.043Z,27.37
2019-04-14T13:30:23.159Z,22.34
2019-04-14T13:31:25.670Z,21.95
2019-04-14T13:32:35.893Z,25.71
2019-04-14T13:33:34.049Z,28.00
2019-04-14T13:34:36.228Z,28.25
2019-04-14T13:35:38.859Z,26.66
2019-04-14T13:36:41.370Z,27.32
2019-04-14T13:37:43.486Z,23.70
2019-04-14T13:38:45.881Z,22.10
2019-04-14T13:39:48.232Z,23.72
2019-04-14T13:40:50.370Z,22.12
2019-04-14T13:41:52.682Z,25.44
2019-04-14T13:42:54.743Z,25.69
2019-04-14T13:43:57.334Z,28.08
2019-04-14T13:44:59.718Z,27.39
2019-04-14T13:46:01.947Z,28.20
2019-04-14T13:47:04.616Z,27.49
2019-04-14T13:48:06.867Z,23.49
2019-04-14T13:49:09.608Z,23.98
2019-04-14T13:50:12.380Z,25.08
2019-04-14T13:51:14.678Z,26.96
2019-04-14T13:52:16.685Z,25.75
2019-04-14T13:53:19.212Z,23.47
2019-04-14T13:54:21.722Z,26.26
2019-04-14T13:55:24.185Z,26.90
2019-04-14T13:56:26.688Z,27.67
2019-04-14T13:57:28.528Z,26.65
2019-04-14T13:58:30.942Z,22.46
2019-04-14T13:59:33.377Z,21.46
2019-04-14T14:00:35.751Z,23.00
2019-04-14T14:01:38.631Z,25.63
2019-04-14T14:02:41.698Z,23.52
2019-04-14T14:03:43.976Z,23.18
2019-04-14T14:04:45.672Z,22.59
2019-04-14T14:05:48.157Z,26.90
2019-04-14T14:06:50.621Z,24.61
2019-04-14T14:07:52.428Z,25.88
2019-04-14T14:08:58.225Z,23.54
2019-04-14T14:10:01.009Z,27.38
2019-04-14T14:11:14.507Z,27.14
2019-04-14T14:12:24.584Z,23.78